sensor_id;sensor_type;location;lat;lon;timestamp;pressure;altitude;pressure_sealevel;temperature;humidity
25759;BME280;13604;52.496;13.456;2022-07-25T00:01:49;101261.38;;;17.93;77.53
25759;BME280;13604;52.496;13.456;2022-07-25T00:04:14;101266.66;;;17.93;77.75
25759;BME280;13604;52.496;13.456;2022-07-25T00:06:41;101259.09;;;17.99;77.04
25759;BME280;13604;52.496;13.456;2022-07-25T00:09:07;101255.50;;;18.00;76.24
25759;BME280;13604;52.496;13.456;2022-07-25T00:11:32;101243.78;;;17.93;75.79
25759;BME280;13604;52.496;13.456;2022-07-25T00:13:58;101243.06;;;17.91;75.75
25759;BME280;13604;52.496;13.456;2022-07-25T00:16:23;101251.44;;;17.96;74.94
25759;BME280;13604;52.496;13.456;2022-07-25T00:18:49;101244.25;;;17.98;74.71
25759;BME280;13604;52.496;13.456;2022-07-25T00:21:14;101244.13;;;18.00;74.26
25759;BME280;13604;52.496;13.456;2022-07-25T00:23:39;101237.66;;;17.93;74.54
25759;BME280;13604;52.496;13.456;2022-07-25T00:26:05;101228.81;;;17.94;74.48
25759;BME280;13604;52.496;13.456;2022-07-25T00:28:30;101221.03;;;17.92;74.31
25759;BME280;13604;52.496;13.456;2022-07-25T00:30:56;101232.41;;;17.93;74.67
25759;BME280;13604;52.496;13.456;2022-07-25T00:33:21;101226.94;;;17.85;74.50
25759;BME280;13604;52.496;13.456;2022-07-25T00:35:46;101230.16;;;17.88;74.48
25759;BME280;13604;52.496;13.456;2022-07-25T00:38:11;101227.66;;;17.87;74.29
25759;BME280;13604;52.496;13.456;2022-07-25T00:40:37;101231.13;;;17.87;74.61
25759;BME280;13604;52.496;13.456;2022-07-25T00:43:02;101220.38;;;17.79;75.37
25759;BME280;13604;52.496;13.456;2022-07-25T00:45:28;101226.06;;;17.74;75.96
25759;BME280;13604;52.496;13.456;2022-07-25T00:47:53;101225.22;;;17.74;76.37
25759;BME280;13604;52.496;13.456;2022-07-25T00:50:18;101211.69;;;17.67;76.81
25759;BME280;13604;52.496;13.456;2022-07-25T00:52:44;101217.69;;;17.69;76.22
25759;BME280;13604;52.496;13.456;2022-07-25T00:55:11;101214.78;;;17.72;75.60
25759;BME280;13604;52.496;13.456;2022-07-25T00:57:36;101218.03;;;17.76;75.49
25759;BME280;13604;52.496;13.456;2022-07-25T01:00:04;101219.09;;;17.73;75.06
25759;BME280;13604;52.496;13.456;2022-07-25T01:02:30;101207.84;;;17.71;74.94
25759;BME280;13604;52.496;13.456;2022-07-25T01:04:55;101205.47;;;17.68;75.10
25759;BME280;13604;52.496;13.456;2022-07-25T01:07:23;101209.66;;;17.71;75.47
25759;BME280;13604;52.496;13.456;2022-07-25T01:09:48;101203.13;;;17.65;75.93
25759;BME280;13604;52.496;13.456;2022-07-25T01:12:14;101193.16;;;17.58;76.70
25759;BME280;13604;52.496;13.456;2022-07-25T01:14:39;101200.09;;;17.59;77.11
25759;BME280;13604;52.496;13.456;2022-07-25T01:17:05;101193.44;;;17.55;77.63
25759;BME280;13604;52.496;13.456;2022-07-25T01:19:30;101196.06;;;17.66;77.77
25759;BME280;13604;52.496;13.456;2022-07-25T01:21:55;101197.84;;;17.65;77.33
25759;BME280;13604;52.496;13.456;2022-07-25T01:24:21;101199.84;;;17.62;77.77
25759;BME280;13604;52.496;13.456;2022-07-25T01:26:46;101185.84;;;17.61;77.35
25759;BME280;13604;52.496;13.456;2022-07-25T01:29:11;101185.53;;;17.55;77.75
25759;BME280;13604;52.496;13.456;2022-07-25T01:31:37;101177.06;;;17.51;77.76
25759;BME280;13604;52.496;13.456;2022-07-25T01:34:02;101184.69;;;17.54;77.73
25759;BME280;13604;52.496;13.456;2022-07-25T01:36:27;101185.06;;;17.50;77.45
25759;BME280;13604;52.496;13.456;2022-07-25T01:38:52;101181.59;;;17.49;78.09
25759;BME280;13604;52.496;13.456;2022-07-25T01:41:18;101177.56;;;17.45;78.09
25759;BME280;13604;52.496;13.456;2022-07-25T01:43:43;101174.47;;;17.40;78.64
25759;BME280;13604;52.496;13.456;2022-07-25T01:46:08;101188.97;;;17.34;79.39
25759;BME280;13604;52.496;13.456;2022-07-25T01:48:34;101176.19;;;17.30;79.82
25759;BME280;13604;52.496;13.456;2022-07-25T01:50:59;101176.97;;;17.21;80.53
25759;BME280;13604;52.496;13.456;2022-07-25T01:53:24;101170.03;;;17.20;81.28
25759;BME280;13604;52.496;13.456;2022-07-25T01:55:50;101165.97;;;17.16;81.91
25759;BME280;13604;52.496;13.456;2022-07-25T01:58:15;101165.88;;;17.06;82.29
25759;BME280;13604;52.496;13.456;2022-07-25T02:00:40;101165.63;;;17.09;82.70
25759;BME280;13604;52.496;13.456;2022-07-25T02:03:06;101161.09;;;17.11;82.86
25759;BME280;13604;52.496;13.456;2022-07-25T02:05:50;101153.44;;;17.08;83.26
25759;BME280;13604;52.496;13.456;2022-07-25T02:08:15;101159.66;;;17.07;83.61
25759;BME280;13604;52.496;13.456;2022-07-25T02:10:40;101157.84;;;17.07;84.20
25759;BME280;13604;52.496;13.456;2022-07-25T02:13:05;101154.06;;;17.00;84.13
25759;BME280;13604;52.496;13.456;2022-07-25T02:15:31;101145.22;;;16.90;85.17
25759;BME280;13604;52.496;13.456;2022-07-25T02:17:56;101155.28;;;16.96;85.52
25759;BME280;13604;52.496;13.456;2022-07-25T02:20:21;101147.72;;;16.92;85.78
25759;BME280;13604;52.496;13.456;2022-07-25T02:22:47;101153.13;;;16.90;85.35
25759;BME280;13604;52.496;13.456;2022-07-25T02:25:12;101146.44;;;16.86;84.88
25759;BME280;13604;52.496;13.456;2022-07-25T02:27:37;101137.00;;;16.84;84.17
25759;BME280;13604;52.496;13.456;2022-07-25T02:30:04;101142.38;;;16.82;84.14
25759;BME280;13604;52.496;13.456;2022-07-25T02:32:30;101134.72;;;16.79;82.85
25759;BME280;13604;52.496;13.456;2022-07-25T02:34:55;101133.09;;;16.78;82.34
25759;BME280;13604;52.496;13.456;2022-07-25T02:37:22;101128.28;;;16.83;82.45
25759;BME280;13604;52.496;13.456;2022-07-25T02:39:47;101123.97;;;16.82;82.42
25759;BME280;13604;52.496;13.456;2022-07-25T02:42:13;101132.94;;;16.80;82.06
25759;BME280;13604;52.496;13.456;2022-07-25T02:44:38;101127.44;;;16.83;82.03
25759;BME280;13604;52.496;13.456;2022-07-25T02:47:03;101121.72;;;16.78;80.83
25759;BME280;13604;52.496;13.456;2022-07-25T02:49:28;101122.31;;;16.81;80.46
25759;BME280;13604;52.496;13.456;2022-07-25T02:51:54;101123.41;;;16.79;80.50
25759;BME280;13604;52.496;13.456;2022-07-25T02:54:21;101116.59;;;16.76;80.26
25759;BME280;13604;52.496;13.456;2022-07-25T02:56:47;101114.28;;;16.83;79.88
25759;BME280;13604;52.496;13.456;2022-07-25T02:59:12;101114.81;;;16.77;80.13
25759;BME280;13604;52.496;13.456;2022-07-25T03:01:37;101114.41;;;16.81;79.79
25759;BME280;13604;52.496;13.456;2022-07-25T03:04:03;101119.53;;;16.83;79.96
25759;BME280;13604;52.496;13.456;2022-07-25T03:06:28;101112.38;;;16.85;79.63
25759;BME280;13604;52.496;13.456;2022-07-25T03:08:53;101098.91;;;16.78;79.74
25759;BME280;13604;52.496;13.456;2022-07-25T03:11:19;101104.47;;;16.85;78.96
25759;BME280;13604;52.496;13.456;2022-07-25T03:13:44;101108.44;;;16.79;79.11
25759;BME280;13604;52.496;13.456;2022-07-25T03:16:09;101104.84;;;16.80;79.18
25759;BME280;13604;52.496;13.456;2022-07-25T03:18:35;101100.09;;;16.74;79.54
25759;BME280;13604;52.496;13.456;2022-07-25T03:21:00;101100.47;;;16.69;80.04
25759;BME280;13604;52.496;13.456;2022-07-25T03:23:26;101105.59;;;16.71;79.95
25759;BME280;13604;52.496;13.456;2022-07-25T03:25:52;101095.78;;;16.73;79.75
25759;BME280;13604;52.496;13.456;2022-07-25T03:28:17;101084.13;;;16.66;80.09
25759;BME280;13604;52.496;13.456;2022-07-25T03:30:43;101083.28;;;16.65;80.28
25759;BME280;13604;52.496;13.456;2022-07-25T03:33:08;101081.38;;;16.67;80.26
25759;BME280;13604;52.496;13.456;2022-07-25T03:35:36;101080.66;;;16.65;80.72
25759;BME280;13604;52.496;13.456;2022-07-25T03:38:01;101081.94;;;16.60;81.06
25759;BME280;13604;52.496;13.456;2022-07-25T03:40:27;101069.06;;;16.57;81.20
25759;BME280;13604;52.496;13.456;2022-07-25T03:42:52;101078.59;;;16.58;81.42
25759;BME280;13604;52.496;13.456;2022-07-25T03:45:17;101068.66;;;16.61;81.72
25759;BME280;13604;52.496;13.456;2022-07-25T03:47:43;101067.22;;;16.68;81.04
25759;BME280;13604;52.496;13.456;2022-07-25T03:50:08;101074.50;;;16.76;80.88
25759;BME280;13604;52.496;13.456;2022-07-25T03:52:34;101078.22;;;16.73;81.02
25759;BME280;13604;52.496;13.456;2022-07-25T03:54:59;101072.63;;;16.67;81.22
25759;BME280;13604;52.496;13.456;2022-07-25T03:57:24;101075.94;;;16.69;81.23
25759;BME280;13604;52.496;13.456;2022-07-25T03:59:49;101075.13;;;16.68;81.38
25759;BME280;13604;52.496;13.456;2022-07-25T04:02:15;101059.94;;;16.72;80.57
25759;BME280;13604;52.496;13.456;2022-07-25T04:04:40;101066.16;;;16.71;80.98
25759;BME280;13604;52.496;13.456;2022-07-25T04:07:06;101066.16;;;16.71;81.02
25759;BME280;13604;52.496;13.456;2022-07-25T04:09:31;101055.06;;;16.67;81.24
25759;BME280;13604;52.496;13.456;2022-07-25T04:11:56;101055.31;;;16.64;81.60
25759;BME280;13604;52.496;13.456;2022-07-25T04:14:22;101047.53;;;16.63;81.78
25759;BME280;13604;52.496;13.456;2022-07-25T04:16:47;101049.41;;;16.72;81.73
25759;BME280;13604;52.496;13.456;2022-07-25T04:19:12;101054.53;;;16.73;82.21
25759;BME280;13604;52.496;13.456;2022-07-25T04:21:38;101041.03;;;16.78;82.06
25759;BME280;13604;52.496;13.456;2022-07-25T04:24:03;101040.88;;;16.80;82.29
25759;BME280;13604;52.496;13.456;2022-07-25T04:26:28;101040.50;;;16.84;81.84
25759;BME280;13604;52.496;13.456;2022-07-25T04:28:54;101040.16;;;16.89;81.99
25759;BME280;13604;52.496;13.456;2022-07-25T04:31:21;101044.75;;;16.96;81.33
25759;BME280;13604;52.496;13.456;2022-07-25T04:33:46;101050.22;;;17.04;80.71
25759;BME280;13604;52.496;13.456;2022-07-25T04:36:12;101044.47;;;17.10;80.43
25759;BME280;13604;52.496;13.456;2022-07-25T04:38:37;101034.13;;;17.19;79.92
25759;BME280;13604;52.496;13.456;2022-07-25T04:41:03;101025.13;;;17.21;79.99
25759;BME280;13604;52.496;13.456;2022-07-25T04:43:28;101033.63;;;17.34;79.91
25759;BME280;13604;52.496;13.456;2022-07-25T04:45:54;101018.88;;;17.43;79.38
25759;BME280;13604;52.496;13.456;2022-07-25T04:48:19;101020.72;;;17.52;79.38
25759;BME280;13604;52.496;13.456;2022-07-25T04:50:44;101005.09;;;17.60;79.33
25759;BME280;13604;52.496;13.456;2022-07-25T04:53:10;101020.16;;;17.79;78.61
25759;BME280;13604;52.496;13.456;2022-07-25T04:55:36;101004.66;;;17.86;77.84
25759;BME280;13604;52.496;13.456;2022-07-25T04:58:03;100988.44;;;17.90;77.38
25759;BME280;13604;52.496;13.456;2022-07-25T05:00:28;100993.75;;;18.00;77.01
25759;BME280;13604;52.496;13.456;2022-07-25T05:02:53;100995.28;;;18.12;75.88
25759;BME280;13604;52.496;13.456;2022-07-25T05:05:19;100976.88;;;18.22;74.66
25759;BME280;13604;52.496;13.456;2022-07-25T05:07:44;100977.28;;;18.36;73.25
25759;BME280;13604;52.496;13.456;2022-07-25T05:10:10;100983.09;;;18.49;73.18
25759;BME280;13604;52.496;13.456;2022-07-25T05:12:35;100975.47;;;18.56;72.65
25759;BME280;13604;52.496;13.456;2022-07-25T05:15:02;100972.19;;;18.64;72.86
25759;BME280;13604;52.496;13.456;2022-07-25T05:17:27;100980.09;;;18.64;72.19
25759;BME280;13604;52.496;13.456;2022-07-25T05:19:53;100974.09;;;18.71;71.47
25759;BME280;13604;52.496;13.456;2022-07-25T05:22:18;100977.00;;;18.78;71.23
25759;BME280;13604;52.496;13.456;2022-07-25T05:24:43;100978.25;;;18.83;71.16
25759;BME280;13604;52.496;13.456;2022-07-25T05:27:09;100962.97;;;18.97;69.71
25759;BME280;13604;52.496;13.456;2022-07-25T05:29:34;100953.50;;;19.04;69.12
25759;BME280;13604;52.496;13.456;2022-07-25T05:32:00;100957.47;;;19.17;67.50
25759;BME280;13604;52.496;13.456;2022-07-25T05:34:25;100967.28;;;19.35;67.61
25759;BME280;13604;52.496;13.456;2022-07-25T05:36:50;100959.19;;;19.46;66.96
25759;BME280;13604;52.496;13.456;2022-07-25T05:39:16;100950.13;;;19.58;65.45
25759;BME280;13604;52.496;13.456;2022-07-25T05:41:41;100943.91;;;19.77;64.67
25759;BME280;13604;52.496;13.456;2022-07-25T05:44:06;100953.53;;;19.95;64.04
25759;BME280;13604;52.496;13.456;2022-07-25T05:46:32;100947.94;;;20.16;62.52
25759;BME280;13604;52.496;13.456;2022-07-25T05:48:57;100951.41;;;20.34;62.76
25759;BME280;13604;52.496;13.456;2022-07-25T05:51:23;100955.59;;;20.55;62.19
25759;BME280;13604;52.496;13.456;2022-07-25T05:53:48;100951.41;;;20.70;61.28
25759;BME280;13604;52.496;13.456;2022-07-25T05:56:13;100950.72;;;20.86;61.16
25759;BME280;13604;52.496;13.456;2022-07-25T05:58:39;100949.97;;;21.01;59.50
25759;BME280;13604;52.496;13.456;2022-07-25T06:01:14;100949.81;;;21.21;59.71
25759;BME280;13604;52.496;13.456;2022-07-25T06:03:41;100947.53;;;21.34;58.65
25759;BME280;13604;52.496;13.456;2022-07-25T06:06:07;100931.06;;;21.48;57.45
25759;BME280;13604;52.496;13.456;2022-07-25T06:08:37;100937.91;;;21.67;56.61
25759;BME280;13604;52.496;13.456;2022-07-25T06:11:03;100937.44;;;21.79;57.36
25759;BME280;13604;52.496;13.456;2022-07-25T06:13:29;100924.88;;;21.90;57.05
25759;BME280;13604;52.496;13.456;2022-07-25T06:15:54;100919.28;;;22.01;55.82
25759;BME280;13604;52.496;13.456;2022-07-25T06:18:19;100928.44;;;22.14;56.21
25759;BME280;13604;52.496;13.456;2022-07-25T06:20:45;100910.69;;;22.23;55.42
25759;BME280;13604;52.496;13.456;2022-07-25T06:23:10;100914.50;;;22.45;55.67
25759;BME280;13604;52.496;13.456;2022-07-25T06:25:35;100921.16;;;22.57;54.53
25759;BME280;13604;52.496;13.456;2022-07-25T06:28:01;100912.16;;;22.66;53.90
25759;BME280;13604;52.496;13.456;2022-07-25T06:30:27;100908.56;;;22.75;53.37
25759;BME280;13604;52.496;13.456;2022-07-25T06:32:52;100912.34;;;22.89;54.15
25759;BME280;13604;52.496;13.456;2022-07-25T06:35:17;100907.31;;;23.02;53.96
25759;BME280;13604;52.496;13.456;2022-07-25T06:37:42;100904.31;;;23.13;53.00
25759;BME280;13604;52.496;13.456;2022-07-25T06:40:08;100900.28;;;23.26;53.27
25759;BME280;13604;52.496;13.456;2022-07-25T06:42:38;100894.75;;;23.35;52.34
25759;BME280;13604;52.496;13.456;2022-07-25T06:45:04;100881.06;;;23.46;51.59
25759;BME280;13604;52.496;13.456;2022-07-25T06:47:30;100886.16;;;23.64;50.91
25759;BME280;13604;52.496;13.456;2022-07-25T06:49:56;100879.31;;;23.70;51.05
25759;BME280;13604;52.496;13.456;2022-07-25T06:52:21;100884.72;;;23.84;51.71
25759;BME280;13604;52.496;13.456;2022-07-25T06:54:46;100879.50;;;23.91;51.99
25759;BME280;13604;52.496;13.456;2022-07-25T06:57:11;100874.25;;;24.06;51.63
25759;BME280;13604;52.496;13.456;2022-07-25T06:59:37;100872.53;;;24.13;50.08
25759;BME280;13604;52.496;13.456;2022-07-25T07:02:02;100875.81;;;24.23;50.75
25759;BME280;13604;52.496;13.456;2022-07-25T07:04:27;100868.03;;;24.36;48.75
25759;BME280;13604;52.496;13.456;2022-07-25T07:06:53;100862.81;;;24.43;49.54
25759;BME280;13604;52.496;13.456;2022-07-25T07:09:18;100860.53;;;24.54;48.51
25759;BME280;13604;52.496;13.456;2022-07-25T07:11:43;100863.16;;;24.62;50.26
25759;BME280;13604;52.496;13.456;2022-07-25T07:14:09;100851.66;;;24.77;48.26
25759;BME280;13604;52.496;13.456;2022-07-25T07:16:34;100845.59;;;24.83;48.11
25759;BME280;13604;52.496;13.456;2022-07-25T07:19:00;100846.00;;;24.94;48.80
25759;BME280;13604;52.496;13.456;2022-07-25T07:21:25;100850.88;;;25.06;48.23
25759;BME280;13604;52.496;13.456;2022-07-25T07:23:51;100840.63;;;25.09;48.03
25759;BME280;13604;52.496;13.456;2022-07-25T07:26:16;100833.63;;;25.23;47.18
25759;BME280;13604;52.496;13.456;2022-07-25T07:28:41;100840.97;;;25.35;47.82
25759;BME280;13604;52.496;13.456;2022-07-25T07:31:07;100836.88;;;25.54;48.54
25759;BME280;13604;52.496;13.456;2022-07-25T07:33:32;100837.69;;;25.69;47.62
25759;BME280;13604;52.496;13.456;2022-07-25T07:35:58;100835.16;;;25.83;49.29
25759;BME280;13604;52.496;13.456;2022-07-25T07:38:24;100836.28;;;25.95;46.14
25759;BME280;13604;52.496;13.456;2022-07-25T07:40:50;100835.34;;;26.02;45.49
25759;BME280;13604;52.496;13.456;2022-07-25T07:43:16;100825.97;;;26.13;47.83
25759;BME280;13604;52.496;13.456;2022-07-25T07:45:41;100825.44;;;26.24;44.66
25759;BME280;13604;52.496;13.456;2022-07-25T07:48:06;100827.44;;;26.37;45.35
25759;BME280;13604;52.496;13.456;2022-07-25T07:50:32;100817.03;;;26.49;44.94
25759;BME280;13604;52.496;13.456;2022-07-25T07:52:57;100826.72;;;26.56;44.44
25759;BME280;13604;52.496;13.456;2022-07-25T07:55:23;100817.13;;;26.62;44.12
25759;BME280;13604;52.496;13.456;2022-07-25T07:58:07;100818.63;;;26.77;44.49
25759;BME280;13604;52.496;13.456;2022-07-25T08:00:33;100818.69;;;26.84;43.07
25759;BME280;13604;52.496;13.456;2022-07-25T08:03:01;100803.16;;;27.07;43.98
25759;BME280;13604;52.496;13.456;2022-07-25T08:05:32;100816.41;;;27.29;43.09
25759;BME280;13604;52.496;13.456;2022-07-25T08:07:59;100805.16;;;27.46;43.48
25759;BME280;13604;52.496;13.456;2022-07-25T08:10:29;100812.00;;;27.75;42.72
25759;BME280;13604;52.496;13.456;2022-07-25T08:12:56;100799.06;;;28.18;44.48
25759;BME280;13604;52.496;13.456;2022-07-25T08:15:21;100793.00;;;28.62;40.21
25759;BME280;13604;52.496;13.456;2022-07-25T08:17:50;100795.63;;;28.95;40.50
25759;BME280;13604;52.496;13.456;2022-07-25T08:20:17;100791.28;;;29.39;39.14
25759;BME280;13604;52.496;13.456;2022-07-25T08:22:46;100790.09;;;29.66;38.39
25759;BME280;13604;52.496;13.456;2022-07-25T08:25:14;100794.38;;;29.74;36.60
25759;BME280;13604;52.496;13.456;2022-07-25T08:27:40;100786.41;;;29.92;37.42
25759;BME280;13604;52.496;13.456;2022-07-25T08:30:07;100781.16;;;30.47;36.65
25759;BME280;13604;52.496;13.456;2022-07-25T08:32:33;100783.47;;;30.98;36.38
25759;BME280;13604;52.496;13.456;2022-07-25T08:34:58;100783.69;;;31.45;35.36
25759;BME280;13604;52.496;13.456;2022-07-25T08:37:26;100781.06;;;31.68;33.34
25759;BME280;13604;52.496;13.456;2022-07-25T08:39:51;100769.41;;;31.56;34.09
25759;BME280;13604;52.496;13.456;2022-07-25T08:42:18;100785.56;;;31.98;33.24
25759;BME280;13604;52.496;13.456;2022-07-25T08:44:49;100771.38;;;31.91;33.65
25759;BME280;13604;52.496;13.456;2022-07-25T08:47:18;100780.66;;;32.18;34.57
25759;BME280;13604;52.496;13.456;2022-07-25T08:49:44;100775.06;;;32.83;33.55
25759;BME280;13604;52.496;13.456;2022-07-25T08:52:10;100770.00;;;33.26;31.80
25759;BME280;13604;52.496;13.456;2022-07-25T08:54:37;100766.41;;;33.38;30.61
25759;BME280;13604;52.496;13.456;2022-07-25T08:57:03;100756.88;;;33.63;31.18
25759;BME280;13604;52.496;13.456;2022-07-25T08:59:30;100757.22;;;33.84;30.71
25759;BME280;13604;52.496;13.456;2022-07-25T09:01:55;100751.38;;;34.25;29.79
25759;BME280;13604;52.496;13.456;2022-07-25T09:04:23;100751.56;;;34.79;29.25
25759;BME280;13604;52.496;13.456;2022-07-25T09:06:49;100751.53;;;35.01;28.20
25759;BME280;13604;52.496;13.456;2022-07-25T09:09:14;100742.97;;;34.87;27.94
25759;BME280;13604;52.496;13.456;2022-07-25T09:11:40;100744.03;;;35.13;28.01
25759;BME280;13604;52.496;13.456;2022-07-25T09:14:07;100747.22;;;34.78;27.63
25759;BME280;13604;52.496;13.456;2022-07-25T09:16:36;100735.59;;;34.83;29.55
25759;BME280;13604;52.496;13.456;2022-07-25T09:19:06;100740.41;;;35.02;27.82
25759;BME280;13604;52.496;13.456;2022-07-25T09:21:32;100730.53;;;35.40;27.49
25759;BME280;13604;52.496;13.456;2022-07-25T09:24:06;100737.88;;;35.18;27.60
25759;BME280;13604;52.496;13.456;2022-07-25T09:26:42;100728.00;;;34.80;28.40
25759;BME280;13604;52.496;13.456;2022-07-25T09:29:15;100720.81;;;35.17;29.07
25759;BME280;13604;52.496;13.456;2022-07-25T09:31:40;100716.84;;;35.89;27.66
25759;BME280;13604;52.496;13.456;2022-07-25T09:34:07;100710.13;;;36.54;27.29
25759;BME280;13604;52.496;13.456;2022-07-25T09:36:33;100714.13;;;37.54;25.08
25759;BME280;13604;52.496;13.456;2022-07-25T09:39:01;100707.75;;;38.30;25.25
25759;BME280;13604;52.496;13.456;2022-07-25T09:41:38;100699.16;;;37.72;24.89
25759;BME280;13604;52.496;13.456;2022-07-25T09:44:17;100700.31;;;36.47;26.59
25759;BME280;13604;52.496;13.456;2022-07-25T09:46:43;100691.78;;;36.91;26.38
25759;BME280;13604;52.496;13.456;2022-07-25T09:49:09;100681.50;;;37.39;25.14
25759;BME280;13604;52.496;13.456;2022-07-25T09:51:38;100679.06;;;37.63;25.26
25759;BME280;13604;52.496;13.456;2022-07-25T09:54:04;100676.38;;;38.52;24.74
25759;BME280;13604;52.496;13.456;2022-07-25T09:56:30;100674.09;;;37.90;24.05
25759;BME280;13604;52.496;13.456;2022-07-25T09:58:57;100669.41;;;38.21;25.84
25759;BME280;13604;52.496;13.456;2022-07-25T10:01:28;100665.81;;;38.80;24.15
25759;BME280;13604;52.496;13.456;2022-07-25T10:04:20;100664.75;;;38.32;24.04
25759;BME280;13604;52.496;13.456;2022-07-25T10:06:51;100661.81;;;38.67;24.58
25759;BME280;13604;52.496;13.456;2022-07-25T10:09:21;100635.88;;;38.80;23.46
25759;BME280;13604;52.496;13.456;2022-07-25T10:12:08;100639.00;;;39.02;23.46
25759;BME280;13604;52.496;13.456;2022-07-25T10:14:34;100645.34;;;39.26;22.92
25759;BME280;13604;52.496;13.456;2022-07-25T10:17:00;100636.44;;;39.16;22.75
25759;BME280;13604;52.496;13.456;2022-07-25T10:19:45;100632.66;;;39.12;23.13
25759;BME280;13604;52.496;13.456;2022-07-25T10:22:12;100617.97;;;39.37;22.84
25759;BME280;13604;52.496;13.456;2022-07-25T10:24:42;100625.34;;;39.89;21.90
25759;BME280;13604;52.496;13.456;2022-07-25T10:27:10;100619.59;;;40.14;21.78
25759;BME280;13604;52.496;13.456;2022-07-25T10:29:37;100616.69;;;39.82;21.42
25759;BME280;13604;52.496;13.456;2022-07-25T10:32:10;100617.16;;;40.13;21.96
25759;BME280;13604;52.496;13.456;2022-07-25T10:34:37;100610.78;;;39.75;21.42
25759;BME280;13604;52.496;13.456;2022-07-25T10:37:14;100599.78;;;40.46;20.98
25759;BME280;13604;52.496;13.456;2022-07-25T10:39:41;100599.41;;;40.53;20.43
25759;BME280;13604;52.496;13.456;2022-07-25T10:42:12;100604.78;;;40.58;19.80
25759;BME280;13604;52.496;13.456;2022-07-25T10:44:48;100598.16;;;40.45;20.94
25759;BME280;13604;52.496;13.456;2022-07-25T10:47:15;100582.03;;;41.60;21.03
25759;BME280;13604;52.496;13.456;2022-07-25T10:49:42;100587.59;;;42.68;19.38
25759;BME280;13604;52.496;13.456;2022-07-25T10:52:17;100590.91;;;41.65;18.55
25759;BME280;13604;52.496;13.456;2022-07-25T10:54:59;100575.69;;;41.45;19.14
25759;BME280;13604;52.496;13.456;2022-07-25T10:57:26;100565.25;;;40.74;20.29
25759;BME280;13604;52.496;13.456;2022-07-25T10:59:51;100559.53;;;41.03;19.71
25759;BME280;13604;52.496;13.456;2022-07-25T11:02:17;100556.78;;;41.76;18.84
25759;BME280;13604;52.496;13.456;2022-07-25T11:05:00;100556.19;;;40.92;19.72
25759;BME280;13604;52.496;13.456;2022-07-25T11:07:26;100543.03;;;42.18;18.73
25759;BME280;13604;52.496;13.456;2022-07-25T11:09:57;100557.59;;;42.63;17.92
25759;BME280;13604;52.496;13.456;2022-07-25T11:12:23;100565.91;;;41.72;18.79
25759;BME280;13604;52.496;13.456;2022-07-25T11:14:49;100531.19;;;42.44;17.91
25759;BME280;13604;52.496;13.456;2022-07-25T11:17:16;100540.97;;;42.37;18.36
25759;BME280;13604;52.496;13.456;2022-07-25T11:22:19;100529.69;;;42.61;17.85
25759;BME280;13604;52.496;13.456;2022-07-25T11:24:45;100533.59;;;43.21;16.84
25759;BME280;13604;52.496;13.456;2022-07-25T11:27:24;100536.25;;;43.44;16.96
25759;BME280;13604;52.496;13.456;2022-07-25T11:29:50;100527.94;;;42.87;18.01
25759;BME280;13604;52.496;13.456;2022-07-25T11:32:15;100532.22;;;42.35;17.41
25759;BME280;13604;52.496;13.456;2022-07-25T11:34:49;100518.84;;;43.40;17.15
25759;BME280;13604;52.496;13.456;2022-07-25T11:37:15;100530.56;;;43.88;17.08
25759;BME280;13604;52.496;13.456;2022-07-25T11:39:42;100524.44;;;42.06;18.07
25759;BME280;13604;52.496;13.456;2022-07-25T11:42:09;100508.53;;;40.33;19.30
25759;BME280;13604;52.496;13.456;2022-07-25T11:44:37;100500.03;;;39.31;20.55
25759;BME280;13604;52.496;13.456;2022-07-25T11:47:06;100489.34;;;41.31;19.01
25759;BME280;13604;52.496;13.456;2022-07-25T11:49:42;100500.25;;;41.44;18.52
25759;BME280;13604;52.496;13.456;2022-07-25T11:52:17;100499.50;;;40.84;18.64
25759;BME280;13604;52.496;13.456;2022-07-25T11:54:54;100484.88;;;38.96;20.43
25759;BME280;13604;52.496;13.456;2022-07-25T11:57:31;100484.44;;;39.13;20.85
25759;BME280;13604;52.496;13.456;2022-07-25T11:59:58;100483.84;;;39.87;19.94
25759;BME280;13604;52.496;13.456;2022-07-25T12:02:31;100484.88;;;38.67;20.85
25759;BME280;13604;52.496;13.456;2022-07-25T12:04:59;100484.78;;;38.77;21.44
25759;BME280;13604;52.496;13.456;2022-07-25T12:07:49;100470.16;;;40.25;20.11
25759;BME280;13604;52.496;13.456;2022-07-25T12:10:22;100477.22;;;39.70;20.43
25759;BME280;13604;52.496;13.456;2022-07-25T12:15:13;100469.53;;;39.29;20.46
25759;BME280;13604;52.496;13.456;2022-07-25T12:17:39;100457.44;;;41.26;19.16
25759;BME280;13604;52.496;13.456;2022-07-25T12:20:11;100462.38;;;41.52;17.97
25759;BME280;13604;52.496;13.456;2022-07-25T12:22:37;100446.47;;;42.48;17.70
25759;BME280;13604;52.496;13.456;2022-07-25T12:25:02;100456.00;;;42.28;17.46
25759;BME280;13604;52.496;13.456;2022-07-25T12:27:28;100437.75;;;40.05;19.02
25759;BME280;13604;52.496;13.456;2022-07-25T12:29:53;100435.88;;;39.20;20.00
25759;BME280;13604;52.496;13.456;2022-07-25T12:32:18;100425.13;;;38.47;20.76
25759;BME280;13604;52.496;13.456;2022-07-25T12:34:44;100433.31;;;39.71;20.21
25759;BME280;13604;52.496;13.456;2022-07-25T12:37:10;100429.09;;;41.86;18.38
25759;BME280;13604;52.496;13.456;2022-07-25T12:39:35;100423.16;;;44.88;16.31
25759;BME280;13604;52.496;13.456;2022-07-25T12:42:00;100420.41;;;46.22;14.91
25759;BME280;13604;52.496;13.456;2022-07-25T12:44:26;100408.38;;;47.20;14.01